Latest Weather Observations for Proserpine

IDQ60801

Issued at 2:05 pm EST Tuesday 2 September 2014 (issued every 30 minutes, with the page automatically refreshed every 10 minutes)

About weather observations | Map of weather stations | Latest weather observations for QLD | Other Formats
Station Details ID: 033247 Name: PROSERPINE AIRPORT Lat: -20.49 Lon: 148.56 Height: 19.7 m
Data from the previous 72 hours. | See also: Recent months at Proserpine
Date/Time
EST
Temp
°C
App
Temp
°C
Dew
Point
Rel
Hum
%
Delta-T
°C
Wind Press
QNH
hPa
Press
MSL
hPa
Rain
since 9 am
mm
Dir
 
Spd
km/h
Gust
km/h
Spd
kts
Gust
kts
02/02:00pm 29.8 28.5 11.3 32 10.7 NE 9 20 5 11 1012.9 - 0.0
02/01:30pm 29.9 28.1 9.4 28 11.5 N 9 19 5 10 1013.6 - 0.0
02/01:00pm 29.2 26.8 8.8 28 11.3 NNW 11 20 6 11 1014.3 - 0.0
02/12:30pm 29.2 27.1 11.3 33 10.3 NNW 13 22 7 12 1014.9 - 0.0
02/12:00pm 27.7 25.5 12.1 38 9.0 N 15 22 8 12 1015.6 1015.6 0.0
02/11:30am 26.8 24.9 11.7 39 8.7 NNW 13 20 7 11 1016.4 - 0.0
02/11:00am 26.2 25.4 13.0 44 7.7 N 9 19 5 10 1017.0 - 0.0
02/10:30am 24.6 22.9 12.5 46 7.0 NNW 13 22 7 12 1017.6 - 0.0
02/10:00am 23.9 23.2 14.3 55 5.7 NW 11 20 6 11 1018.1 - 0.0
02/09:30am 22.4 22.1 14.5 61 4.7 NNW 9 15 5 8 1018.4 - 0.0
02/09:00am 20.8 21.3 14.9 69 3.5 NNW 6 9 3 5 1018.7 1018.6 0.0
02/08:30am 18.2 19.7 14.7 80 2.0 CALM 0 0 0 0 1018.6 - 0.0
02/08:00am 15.2 15.6 13.6 90 0.9 N 4 7 2 4 1018.5 - 0.0
02/07:30am 12.9 13.5 11.8 93 0.6 CALM 0 0 0 0 1018.5 - 0.0
02/07:00am 10.6 10.7 10.1 97 0.3 CALM 0 0 0 0 1018.3 - 0.0
02/06:30am 8.7 8.3 8.3 97 0.2 CALM 0 0 0 0 1018.2 - 0.0
02/06:00am 8.2 6.4 7.8 97 0.2 SW 7 9 4 5 1018.3 1018.1 0.0
02/05:30am 8.6 8.1 8.0 96 0.3 CALM 0 0 0 0 1017.6 - 0.0
02/05:00am 8.2 7.6 7.3 94 0.4 CALM 0 0 0 0 1017.7 - 0.0
02/04:30am 9.1 8.7 8.3 95 0.4 CALM 0 0 0 0 1017.7 - 0.0
02/04:00am 9.3 9.0 8.5 95 0.4 CALM 0 0 0 0 1017.6 - 0.0
02/03:30am 9.9 9.8 9.3 96 0.3 CALM 0 0 0 0 1017.4 - 0.0
02/03:00am 9.9 9.8 9.3 96 0.3 CALM 0 0 0 0 1017.8 1017.7 0.0
02/02:30am 10.1 9.3 9.6 97 0.3 NW 4 7 2 4 1018.1 - 0.0
02/02:27am 10.5 9.8 10.2 98 0.2 NNW 4 7 2 4 1018.1 - 0.0
02/02:00am 11.0 10.5 10.7 98 0.2 N 4 7 2 4 1018.3 - 0.0
02/01:56am 10.9 10.0 10.6 98 0.2 N 6 7 3 4 1018.3 - 0.0
02/01:30am 10.8 10.9 10.3 97 0.3 CALM 0 0 0 0 1018.5 - 0.0
02/01:00am 11.2 11.0 10.6 96 0.3 SW 2 6 1 3 1018.6 - 0.0
02/12:30am 10.6 9.4 9.4 92 0.6 WSW 6 7 3 4 1018.9 - 0.0
02/12:00am 11.7 10.8 10.8 94 0.5 SW 6 7 3 4 1018.8 1018.7 0.0
 
Date/Time
EST
Temp
°C
App
Temp
°C
Dew
Point
Rel
Hum
%
Delta-T
°C
Wind Press
QNH
hPa
Press
MSL
hPa
Rain
since 9 am
mm
Dir
 
Spd
km/h
Gust
km/h
Spd
kts
Gust
kts
01/11:30pm 12.0 11.1 10.7 92 0.7 SW 6 7 3 4 1018.5 - 0.0
01/11:00pm 12.6 12.1 12.0 96 0.3 SW 6 7 3 4 1018.7 - 0.0
01/10:30pm 12.3 11.6 11.5 95 0.4 SW 6 6 3 3 1018.7 - 0.0
01/10:00pm 12.3 11.5 11.0 92 0.7 SW 6 7 3 4 1018.5 - 0.0
01/09:30pm 14.0 13.6 13.1 94 0.5 SSW 7 7 4 4 1018.5 - 0.0
01/09:00pm 13.9 13.5 13.0 94 0.5 SSW 7 9 4 5 1018.5 1018.4 0.0
01/08:30pm 14.1 13.7 12.3 89 1.0 SSW 6 7 3 4 1018.5 - 0.0
01/08:00pm 15.7 17.0 14.1 90 0.9 CALM 0 0 0 0 1018.2 - 0.0
01/07:30pm 16.1 16.6 13.9 87 1.2 SSW 4 6 2 3 1017.8 - 0.0
01/07:00pm 17.5 17.8 14.6 83 1.7 SSE 6 7 3 4 1017.6 - 0.0
01/06:30pm 18.2 17.7 14.9 81 1.9 SE 11 13 6 7 1017.3 - 0.0
01/06:00pm 19.5 18.5 14.7 74 2.8 ESE 13 15 7 8 1016.9 1016.8 0.0
01/05:30pm 21.3 20.0 13.7 62 4.4 ESE 13 19 7 10 1016.6 - 0.0
01/05:00pm 22.4 20.4 14.0 59 4.9 E 17 26 9 14 1016.2 - 0.0
01/04:30pm 22.8 20.1 13.6 56 5.3 ESE 20 28 11 15 1016.0 - 0.0
01/04:00pm 23.8 20.9 12.8 50 6.3 E 20 30 11 16 1015.9 - 0.0
01/03:30pm 24.6 21.2 11.2 43 7.5 E 20 28 11 15 1016.0 - 0.0
01/03:00pm 24.6 21.5 11.5 44 7.4 E 19 26 10 14 1016.3 1016.2 0.0
01/02:30pm 24.5 21.1 11.1 43 7.5 E 20 28 11 15 1016.4 - 0.0
01/02:00pm 25.1 21.2 9.4 37 8.6 E 20 30 11 16 1016.7 - 0.0
01/01:30pm 24.7 21.5 11.3 43 7.5 E 19 30 10 16 1017.2 - 0.0
01/01:00pm 24.8 20.7 7.9 34 9.0 E 19 28 10 15 1017.6 - 0.0
01/12:30pm 25.0 21.8 11.9 44 7.5 E 20 30 11 16 1018.1 - 0.0
01/12:00pm 25.2 22.1 10.3 39 8.3 ENE 17 26 9 14 1018.4 1018.3 0.0
01/11:30am 23.8 22.2 11.5 46 6.9 ENE 11 20 6 11 1019.1 - 0.0
01/11:00am 24.0 22.3 12.3 48 6.7 E 13 19 7 10 1019.1 - 0.0
01/10:30am 23.9 22.1 13.4 51 6.1 ESE 15 22 8 12 1019.3 - 0.0
01/10:00am 22.3 20.7 12.8 55 5.4 E 13 22 7 12 1019.4 - 0.0
01/09:30am 22.0 21.1 12.5 54 5.4 E 9 17 5 9 1019.9 - 0.0
01/09:00am 20.4 20.1 13.4 64 4.0 S 7 11 4 6 1019.9 1019.8 0.0
01/08:30am 18.4 18.2 13.5 73 2.8 S 7 9 4 5 1019.8 - 0.0
01/08:00am 15.0 15.5 12.7 86 1.3 S 2 6 1 3 1019.4 - 0.0
01/07:30am 12.7 12.0 11.9 95 0.4 SSW 7 11 4 6 1019.0 - 0.0
01/07:00am 9.3 9.0 8.8 97 0.2 CALM 0 0 0 0 1019.0 - 0.0
01/06:30am 7.0 6.2 6.4 96 0.3 CALM 0 0 0 0 1018.6 - 0.0
01/06:00am 6.7 5.7 5.8 94 0.4 CALM 0 0 0 0 1018.1 1018.0 0.0
01/05:30am 7.6 6.9 7.0 96 0.3 CALM 0 0 0 0 1017.9 - 0.0
01/05:00am 7.3 6.5 6.4 94 0.4 CALM 0 0 0 0 1017.6 - 0.0
01/04:30am 7.9 7.3 7.3 96 0.3 CALM 0 0 0 0 1017.5 - 0.0
01/04:26am 7.9 7.3 7.3 96 0.3 CALM 0 0 0 0 1017.5 - 0.0
01/04:00am 8.0 7.4 7.6 97 0.2 CALM 0 0 0 0 1017.8 - 0.0
01/03:56am 8.0 7.4 7.4 96 0.3 CALM 0 0 0 0 1017.7 - 0.0
01/03:30am 8.0 7.4 7.2 95 0.4 CALM 0 0 0 0 1017.7 - 0.0
01/03:00am 8.7 8.2 7.9 95 0.4 CALM 0 0 0 0 1017.5 1017.5 0.0
01/02:30am 9.7 9.5 8.9 95 0.4 CALM 0 0 0 0 1017.7 - 0.0
01/02:00am 10.2 10.2 9.7 97 0.3 CALM 0 0 0 0 1018.0 - 0.0
01/01:30am 9.8 9.5 8.7 93 0.5 CALM 0 0 0 0 1018.0 - 0.0
01/01:00am 11.9 12.3 11.4 97 0.3 CALM 0 0 0 0 1017.8 - 0.0
01/12:30am 11.5 11.8 11.0 97 0.3 CALM 0 0 0 0 1018.1 - 0.0
01/12:00am 10.1 9.9 9.0 93 0.5 CALM 0 0 0 0 1018.3 1018.3 0.0
 
Date/Time
EST
Temp
°C
App
Temp
°C
Dew
Point
Rel
Hum
%
Delta-T
°C
Wind Press
QNH
hPa
Press
MSL
hPa
Rain
since 9 am
mm
Dir
 
Spd
km/h
Gust
km/h
Spd
kts
Gust
kts
31/11:30pm 12.2 12.7 11.6 96 0.3 CALM 0 0 0 0 1018.2 - 0.0
31/11:00pm 11.7 11.9 10.6 93 0.6 CALM 0 0 0 0 1018.5 - 0.0
31/10:30pm 11.1 11.0 9.4 89 0.9 CALM 0 0 0 0 1018.5 - 0.0
31/10:00pm 11.5 11.6 10.1 91 0.7 CALM 0 0 0 0 1018.7 - 0.0
31/09:30pm 11.9 12.0 10.0 88 1.0 CALM 0 0 0 0 1018.6 - 0.0
31/09:00pm 12.5 12.7 10.4 87 1.1 CALM 0 0 0 0 1018.5 1018.5 0.0
31/08:30pm 13.0 13.1 10.2 83 1.4 CALM 0 4 0 2 1018.2 - 0.0
31/08:00pm 13.6 12.7 10.8 83 1.5 SW 6 7 3 4 1017.9 - 0.0
31/07:30pm 15.1 14.3 10.9 76 2.2 S 6 6 3 3 1017.6 - 0.0
31/07:00pm 17.0 17.2 11.7 71 2.9 ESE 2 6 1 3 1017.2 - 0.0
31/06:30pm 18.1 16.5 11.7 66 3.5 ESE 11 13 6 7 1016.8 - 0.0
31/06:00pm 19.3 17.0 10.3 56 4.8 ESE 13 15 7 8 1016.4 1016.4 0.0
31/05:30pm 21.4 18.5 8.3 43 6.9 ESE 13 17 7 9 1016.0 - 0.0
31/05:00pm 22.6 18.4 7.6 38 7.8 E 19 26 10 14 1015.7 - 0.0
31/04:30pm 23.8 18.7 4.2 28 9.7 E 20 30 11 16 1015.4 - 0.0
31/04:00pm 24.2 18.6 3.5 26 10.1 E 22 32 12 17 1015.3 - 0.0
31/03:30pm 24.9 20.0 5.2 28 10.0 E 20 32 11 17 1015.2 - 0.0
31/03:00pm 25.3 19.8 3.9 25 10.6 E 22 30 12 16 1015.5 1015.5 0.0
31/02:30pm 25.5 19.4 2.9 23 11.0 E 24 33 13 18 1015.6 - 0.0
31/02:00pm 25.3 19.5 2.1 22 11.1 E 22 33 12 18 1016.0 - 0.0
31/01:30pm 25.9 20.2 2.6 22 11.3 E 22 32 12 17 1016.4 - 0.0
31/01:00pm 25.1 19.8 3.1 24 10.7 E 20 32 11 17 1016.8 - 0.0
31/12:30pm 25.3 19.9 2.7 23 11.0 ESE 20 33 11 18 1017.2 - 0.0
31/12:00pm 25.1 19.2 3.7 25 10.5 SE 24 32 13 17 1017.6 1017.7 0.0
31/11:30am 25.7 21.5 7.3 31 9.7 ESE 19 32 10 17 1017.9 - 0.0
31/11:00am 24.8 20.7 6.1 30 9.6 ESE 17 28 9 15 1018.3 - 0.0
31/10:30am 23.9 21.5 10.2 42 7.5 SE 13 22 7 12 1018.6 - 0.0
31/10:00am 22.8 20.4 8.5 40 7.6 ESE 11 19 6 10 1019.0 - 0.0
31/09:30am 22.0 22.1 13.9 60 4.7 SE 6 13 3 7 1019.3 - 0.0
31/09:00am 19.9 21.0 13.4 66 3.7 CALM 0 0 0 0 1019.4 1019.4 0.0
31/08:30am 17.6 18.4 12.5 72 2.8 CALM 0 0 0 0 1019.3 - 0.0
31/08:00am 14.5 15.1 12.0 85 1.4 CALM 0 0 0 0 1019.2 - 0.0
31/07:30am 11.7 12.0 10.9 95 0.4 CALM 0 0 0 0 1019.1 - 0.0
31/07:00am 9.0 8.7 8.5 97 0.2 CALM 0 0 0 0 1018.7 - 0.0
31/06:30am 7.0 6.2 6.4 96 0.3 CALM 0 0 0 0 1018.2 - 0.0
31/06:00am 7.1 6.3 6.4 95 0.3 CALM 0 0 0 0 1018.0 1018.0 0.0
31/05:30am 7.6 6.8 6.7 94 0.4 CALM 0 0 0 0 1017.6 - 0.0
31/05:00am 8.1 7.5 7.5 96 0.3 CALM 0 0 0 0 1017.2 - 0.0
31/04:30am 7.7 6.9 6.6 93 0.5 CALM 0 0 0 0 1017.2 - 0.0
31/04:00am 9.8 9.6 8.9 94 0.4 CALM 0 0 0 0 1017.1 - 0.0
31/03:30am 9.5 9.2 8.6 94 0.4 CALM 0 0 0 0 1017.1 - 0.0
31/03:00am 9.8 9.6 8.9 94 0.4 CALM 0 0 0 0 1017.3 1017.3 0.0
31/02:30am 9.3 9.0 8.5 95 0.4 CALM 0 0 0 0 1017.4 - 0.0
31/02:00am 9.4 9.0 8.2 92 0.6 CALM 0 0 0 0 1017.6 - 0.0
31/01:30am 9.7 9.4 8.6 93 0.5 CALM 0 0 0 0 1017.8 - 0.0
31/01:00am 10.3 10.1 9.1 92 0.6 CALM 0 0 0 0 1018.2 - 0.0
31/12:30am 10.2 9.9 8.8 91 0.7 CALM 0 0 0 0 1018.4 - 0.0
31/12:00am 10.6 10.3 8.7 88 0.9 CALM 0 0 0 0 1018.6 1018.6 0.0
 
Date/Time
EST
Temp
°C
App
Temp
°C
Dew
Point
Rel
Hum
%
Delta-T
°C
Wind Press
QNH
hPa
Press
MSL
hPa
Rain
since 9 am
mm
Dir
 
Spd
km/h
Gust
km/h
Spd
kts
Gust
kts
30/11:30pm 12.1 11.0 10.5 90 0.8 SSW 7 9 4 5 1018.8 - 0.0
30/11:00pm 11.4 10.2 9.7 89 0.9 SW 6 7 3 4 1018.9 - 0.0
30/10:30pm 12.2 11.1 10.1 87 1.1 SW 6 7 3 4 1019.0 - 0.0
30/10:00pm 13.2 12.4 10.9 86 1.2 SW 6 7 3 4 1019.0 - 0.0
30/09:30pm 13.7 12.8 11.2 85 1.3 SSW 7 15 4 8 1019.0 - 0.0
30/09:00pm 13.7 12.0 11.2 85 1.3 SSW 11 15 6 8 1018.8 1018.8 0.0
30/08:30pm 14.0 12.6 10.8 81 1.7 SSW 9 11 5 6 1018.8 - 0.0
30/08:00pm 15.2 14.2 11.0 76 2.2 S 7 9 4 5 1018.7 - 0.0
30/07:30pm 16.0 14.4 11.6 75 2.4 S 11 11 6 6 1018.2 - 0.0
30/07:00pm 17.4 16.7 11.9 70 3.0 S 7 9 4 5 1018.2 - 0.0
30/06:30pm 18.0 17.0 10.9 63 3.8 SSE 7 9 4 5 1017.8 - 0.0
30/06:00pm 19.3 17.2 9.8 54 5.1 ESE 11 13 6 7 1017.5 1017.4 0.0
30/05:30pm 21.1 17.5 8.4 44 6.7 ESE 17 22 9 12 1017.1 - 0.0
30/05:00pm 22.2 18.1 8.7 42 7.2 E 20 28 11 15 1016.8 - 0.0
30/04:30pm 23.0 18.8 8.3 39 7.8 E 20 28 11 15 1017.0 - 0.0
30/04:00pm 23.3 18.5 7.4 36 8.3 E 22 30 12 16 1016.7 - 0.0
30/03:30pm 23.8 18.6 7.4 35 8.6 E 24 32 13 17 1016.7 - 0.0
30/03:00pm 24.3 18.7 7.0 33 9.0 E 26 37 14 20 1016.6 1016.6 0.0
30/02:30pm 24.6 19.8 9.0 37 8.4 E 24 35 13 19 1017.0 - 0.0

Other Formats:

Comma delimited format used in spreadsheet applications
http://www.bom.gov.au/fwo/IDQ60801/IDQ60801.94365.axf

JavaScript Object Notation format (JSON) in row-major order
http://www.bom.gov.au/fwo/IDQ60801/IDQ60801.94365.json